EDDE

Erfurt Airport

Erfurt, Germany
METAR EDDE 140020Z 07004KT 030V110 9999 BKN009 BKN033 M01/M02 Q1020
Observed Flight Rules
Dec-14 @ 00:20 UTC (24 minutes ago) Instrument Flight Rules
Wind Visibility Clouds
70° at 4 knots 10,000+ meters
  • Broken at 900' AGL
  • Broken at 3,300' AGL
Temperatures Readings
Current -1°C / 30°F
Dewpoint -2°C / 28°F
Humidity 93%
Altimeter 30.12" Hg
Pressure 1020 hPa
Elevation 323
METAR EDDE 140020Z 07004KT 030V110 9999 BKN009 BKN033 M01/M02 Q1020
Observed Flight Rules
Dec-14 @ 00:20 UTC
(24 minutes ago)
IFR
Wind Visibility
70° at 4 knots 10,000+ meters
Clouds
  • Broken at 900' AGL
  • Broken at 3,300' AGL
Temperature Dewpoint
-1°C / 30°F -2°C / 28°F
Humidity Altimeter Pressure
93% 30.12" Hg 1020 hPa